Time;durP1;ratioP1;P1;durP2;ratioP2;P2;SDS_P1;SDS_P2;PMS_P1;PMS_P2;Temp;Humidity;BMP_temperature;BMP_pressure;BME280_temperature;BME280_humidity;BME280_pressure;Samples;Min_cycle;Max_cycle;Signal;HPM_P1;HPM_P2
2021/05/25 00:02:00;;;;;;;1.73;1.23;;;10.60;98.50;;;;;;5027663;28;20254;-87
2021/05/25 00:04:27;;;;;;;1.92;0.80;;;10.50;97.50;;;;;;5028238;28;20231;-86
2021/05/25 00:06:53;;;;;;;1.20;0.93;;;10.30;95.80;;;;;;5028429;28;20237;-87
2021/05/25 00:09:21;;;;;;;1.40;0.90;;;10.20;95.80;;;;;;5029181;28;20209;-87
2021/05/25 00:11:48;;;;;;;2.13;1.20;;;10.00;95.90;;;;;;5028944;28;20218;-87
2021/05/25 00:14:18;;;;;;;1.48;0.82;;;9.90;96.90;;;;;;5028527;28;20187;-87
2021/05/25 00:20:32;;;;;;;1.08;0.90;;;9.70;97.40;;;;;;5028510;28;20210;-86
2021/05/25 00:22:58;;;;;;;3.22;1.00;;;9.70;97.20;;;;;;5028590;28;20223;-86
2021/05/25 00:25:31;;;;;;;2.85;0.95;;;9.60;97.40;;;;;;5029594;28;20203;-87
2021/05/25 00:27:58;;;;;;;2.70;1.08;;;9.70;97.60;;;;;;5028072;28;20560;-88
2021/05/25 00:30:24;;;;;;;1.23;0.95;;;9.60;97.80;;;;;;5028939;28;20199;-87
2021/05/25 00:32:51;;;;;;;1.77;1.30;;;9.60;97.70;;;;;;5027641;28;20234;-88
2021/05/25 00:35:18;;;;;;;2.15;1.00;;;9.60;97.60;;;;;;5016662;28;20203;-89
2021/05/25 00:37:44;;;;;;;2.63;1.00;;;9.70;97.60;;;;;;5024360;28;20308;-87
2021/05/25 00:40:13;;;;;;;1.65;1.20;;;9.70;97.10;;;;;;5028533;28;20249;-87
2021/05/25 00:42:43;;;;;;;1.50;1.05;;;9.70;97.50;;;;;;5014943;28;20239;-86
2021/05/25 00:45:10;;;;;;;2.00;1.00;;;9.60;97.80;;;;;;5026682;28;20203;-87
2021/05/25 00:47:38;;;;;;;0.95;0.95;;;9.70;97.90;;;;;;5012075;28;20694;-90
2021/05/25 00:50:12;;;;;;;1.75;1.00;;;9.60;98.00;;;;;;5017133;28;20214;-89
2021/05/25 00:52:41;;;;;;;1.67;1.00;;;9.60;98.40;;;;;;5015430;28;20600;-90
2021/05/25 00:55:10;;;;;;;1.05;1.00;;;9.70;98.10;;;;;;5015154;28;20301;-90
2021/05/25 00:57:38;;;;;;;3.00;1.10;;;9.60;97.90;;;;;;5023499;28;20579;-89
2021/05/25 01:00:08;;;;;;;3.22;1.02;;;9.60;98.10;;;;;;5015996;28;20641;-89
2021/05/25 01:02:36;;;;;;;1.98;1.23;;;9.60;97.60;;;;;;5000517;28;20659;-90
2021/05/25 01:05:13;;;;;;;2.40;1.20;;;9.50;97.70;;;;;;5008936;28;20638;-90
2021/05/25 01:07:39;;;;;;;1.05;0.95;;;9.60;97.30;;;;;;5012639;28;20219;-89
2021/05/25 01:10:08;;;;;;;2.65;1.05;;;9.50;97.40;;;;;;5006734;28;20244;-91
2021/05/25 01:12:36;;;;;;;1.20;1.00;;;9.50;97.80;;;;;;5014716;28;20226;-90
2021/05/25 01:15:09;;;;;;;1.60;1.00;;;9.50;97.40;;;;;;5015149;28;20262;-90
2021/05/25 01:17:35;;;;;;;1.75;0.95;;;9.50;96.80;;;;;;5013595;28;20318;-90
2021/05/25 01:20:04;;;;;;;3.65;1.00;;;9.40;97.20;;;;;;5014758;28;20191;-90
2021/05/25 01:22:31;;;;;;;1.42;1.00;;;9.50;96.20;;;;;;5011809;28;20224;-87
2021/05/25 01:24:58;;;;;;;2.10;0.93;;;9.50;95.70;;;;;;5018991;28;20258;-88
2021/05/25 01:27:24;;;;;;;1.52;0.90;;;9.50;96.00;;;;;;5002415;28;20231;-87
2021/05/25 01:29:50;;;;;;;2.03;1.00;;;9.50;95.80;;;;;;5015172;28;20225;-88
2021/05/25 01:32:17;;;;;;;1.55;0.80;;;9.40;95.70;;;;;;5021079;28;20242;-87
2021/05/25 01:34:43;;;;;;;1.80;1.05;;;9.40;96.00;;;;;;5010032;28;20297;-89
2021/05/25 01:37:10;;;;;;;1.52;1.00;;;9.40;96.00;;;;;;5026492;28;20219;-89
2021/05/25 01:39:37;;;;;;;1.25;1.00;;;9.40;96.00;;;;;;5029840;28;20207;-88
2021/05/25 01:42:04;;;;;;;1.08;1.00;;;9.40;96.00;;;;;;5017136;28;20226;-89
2021/05/25 01:44:35;;;;;;;1.55;0.93;;;9.40;96.00;;;;;;5024512;28;20716;-88
2021/05/25 01:47:01;;;;;;;1.23;0.90;;;9.50;95.30;;;;;;5018938;28;20233;-88
2021/05/25 01:49:27;;;;;;;4.20;0.93;;;9.50;94.90;;;;;;5023606;28;20215;-89
2021/05/25 01:51:54;;;;;;;2.28;1.00;;;9.50;94.80;;;;;;5019981;28;20231;-87
2021/05/25 01:54:20;;;;;;;3.10;1.10;;;9.40;95.10;;;;;;5013824;28;20273;-87
2021/05/25 01:56:48;;;;;;;2.65;1.00;;;9.40;95.60;;;;;;5026050;28;20239;-87
2021/05/25 01:59:14;;;;;;;1.17;0.85;;;9.30;96.00;;;;;;5022506;28;20548;-87
2021/05/25 02:01:40;;;;;;;1.63;0.95;;;9.40;95.10;;;;;;5032091;28;20207;-87
2021/05/25 02:04:07;;;;;;;2.78;1.10;;;9.30;95.20;;;;;;5033961;28;20201;-87
2021/05/25 02:06:33;;;;;;;2.30;1.05;;;9.40;95.20;;;;;;5033384;28;20418;-87
2021/05/25 02:09:00;;;;;;;2.63;1.10;;;9.30;95.30;;;;;;5030766;28;20207;-87
2021/05/25 02:11:26;;;;;;;1.77;1.10;;;9.30;95.70;;;;;;5030091;28;20667;-87
2021/05/25 02:13:53;;;;;;;2.90;1.10;;;9.30;95.80;;;;;;5043915;28;20194;-87
2021/05/25 02:16:20;;;;;;;3.03;0.95;;;9.30;95.30;;;;;;5031222;28;20199;-89
2021/05/25 02:18:48;;;;;;;4.55;1.10;;;9.30;95.30;;;;;;5030459;28;20223;-88
2021/05/25 02:21:17;;;;;;;4.38;1.08;;;9.30;95.10;;;;;;5030480;28;20213;-87
2021/05/25 02:23:43;;;;;;;4.60;1.15;;;9.30;95.60;;;;;;5029353;28;20227;-87
2021/05/25 02:26:10;;;;;;;4.55;1.25;;;9.20;95.90;;;;;;5029951;28;20203;-87
2021/05/25 02:28:38;;;;;;;5.05;1.15;;;9.20;96.00;;;;;;5029746;28;20710;-89
2021/05/25 02:31:05;;;;;;;2.53;1.00;;;9.10;95.90;;;;;;5012347;28;20204;-87
2021/05/25 02:33:32;;;;;;;2.88;1.20;;;9.20;94.80;;;;;;5018897;28;20255;-87
2021/05/25 02:36:00;;;;;;;2.58;1.35;;;9.20;94.50;;;;;;5027991;28;20203;-88
2021/05/25 02:38:28;;;;;;;3.15;1.00;;;9.20;94.70;;;;;;5029650;28;20249;-88
2021/05/25 02:40:56;;;;;;;2.85;1.30;;;9.10;94.90;;;;;;5017767;28;20207;-90
2021/05/25 02:43:24;;;;;;;5.53;1.10;;;9.10;95.40;;;;;;5024490;28;20282;-87
2021/05/25 02:45:51;;;;;;;3.38;1.17;;;9.10;95.30;;;;;;5034771;28;20270;-87
2021/05/25 02:48:19;;;;;;;1.70;1.00;;;9.10;94.90;;;;;;5009060;28;20230;-87
2021/05/25 02:50:46;;;;;;;3.70;1.45;;;9.10;94.80;;;;;;5016851;28;20204;-87
2021/05/25 02:53:13;;;;;;;1.98;1.02;;;9.10;95.20;;;;;;5031276;28;20584;-90
2021/05/25 02:55:40;;;;;;;1.27;1.00;;;9.00;95.20;;;;;;5010239;28;20295;-87
2021/05/25 02:58:09;;;;;;;3.75;1.40;;;9.10;95.90;;;;;;5013310;28;20250;-87
2021/05/25 03:00:38;;;;;;;3.88;1.10;;;9.10;95.70;;;;;;5027329;28;20662;-87
2021/05/25 03:03:05;;;;;;;3.88;1.30;;;9.10;95.50;;;;;;5033279;28;20254;-87
2021/05/25 03:05:47;;;;;;;1.88;1.20;;;9.20;95.10;;;;;;5028974;28;20207;-87
2021/05/25 03:08:15;;;;;;;3.08;1.35;;;9.20;94.90;;;;;;5026285;28;20235;-89
2021/05/25 03:10:43;;;;;;;2.08;0.95;;;9.20;94.70;;;;;;5028438;28;20287;-87
2021/05/25 03:13:09;;;;;;;2.55;1.05;;;9.20;95.00;;;;;;5011367;28;20291;-87
2021/05/25 03:15:38;;;;;;;1.70;1.00;;;9.20;94.80;;;;;;5036819;28;20206;-87
2021/05/25 03:18:05;;;;;;;3.70;1.20;;;9.20;95.10;;;;;;5033254;28;20238;-87
2021/05/25 03:20:33;;;;;;;4.40;1.33;;;9.30;94.30;;;;;;5019082;28;20204;-87
2021/05/25 03:23:00;;;;;;;3.35;1.20;;;9.30;94.40;;;;;;5028413;28;20292;-89
2021/05/25 03:25:27;;;;;;;2.20;1.30;;;9.30;94.30;;;;;;5028241;28;20206;-87
2021/05/25 03:27:54;;;;;;;5.32;1.50;;;9.20;94.30;;;;;;5029488;28;20226;-88
2021/05/25 03:30:23;;;;;;;4.30;1.33;;;9.20;94.00;;;;;;5029321;28;20196;-87
2021/05/25 03:32:50;;;;;;;4.65;1.20;;;9.30;94.40;;;;;;5028522;28;20728;-87
2021/05/25 03:35:18;;;;;;;4.05;1.08;;;9.20;94.70;;;;;;5028741;28;20199;-88
2021/05/25 03:37:45;;;;;;;5.00;1.33;;;9.20;94.20;;;;;;5029012;28;20233;-87
2021/05/25 03:40:14;;;;;;;6.00;1.60;;;9.10;94.30;;;;;;5030400;28;20291;-86
2021/05/25 03:42:45;;;;;;;4.82;1.30;;;9.10;94.30;;;;;;5027832;28;20242;-88
2021/05/25 03:45:12;;;;;;;3.72;1.30;;;9.00;94.80;;;;;;5009666;28;20243;-87
2021/05/25 03:47:38;;;;;;;4.07;1.38;;;9.00;95.10;;;;;;5027369;28;20219;-87
2021/05/25 03:50:08;;;;;;;2.80;1.10;;;9.00;95.40;;;;;;5029366;28;20202;-87
2021/05/25 03:52:36;;;;;;;2.28;1.20;;;9.10;95.00;;;;;;5027295;28;20223;-86
2021/05/25 03:55:07;;;;;;;2.78;1.20;;;9.10;94.70;;;;;;5028935;28;20223;-87
2021/05/25 04:00:19;;;;;;;4.40;1.20;;;9.10;95.10;;;;;;5027616;28;20210;-86
2021/05/25 04:02:46;;;;;;;2.65;1.30;;;9.00;94.60;;;;;;5008628;28;20250;-87
2021/05/25 04:05:12;;;;;;;4.85;1.20;;;9.00;94.90;;;;;;5000727;28;20209;-87
2021/05/25 04:07:39;;;;;;;1.77;1.02;;;9.10;94.90;;;;;;5028101;28;20235;-87
2021/05/25 04:10:06;;;;;;;3.05;1.10;;;9.10;94.90;;;;;;5035398;28;20194;-87
2021/05/25 04:12:33;;;;;;;2.85;1.13;;;9.10;95.10;;;;;;5018977;28;20247;-87
2021/05/25 04:15:00;;;;;;;3.30;1.38;;;9.10;95.40;;;;;;5019954;28;20207;-87
2021/05/25 04:17:26;;;;;;;3.10;1.20;;;9.00;95.20;;;;;;5027569;28;20314;-87
2021/05/25 04:19:53;;;;;;;3.10;1.30;;;9.00;95.80;;;;;;5025383;28;20206;-88
2021/05/25 04:22:19;;;;;;;5.00;1.35;;;9.00;95.90;;;;;;5022657;28;20610;-87
2021/05/25 04:24:46;;;;;;;4.55;1.30;;;9.00;95.90;;;;;;5027770;28;20553;-88
2021/05/25 04:27:12;;;;;;;3.15;1.00;;;9.00;96.60;;;;;;5027086;28;20319;-88
2021/05/25 04:29:39;;;;;;;2.92;1.10;;;9.10;95.90;;;;;;5027006;28;20207;-90
2021/05/25 04:32:07;;;;;;;3.15;1.10;;;9.10;95.90;;;;;;5021339;28;20295;-87
2021/05/25 04:34:34;;;;;;;3.08;1.30;;;9.10;95.90;;;;;;5019858;28;20206;-92
2021/05/25 04:37:00;;;;;;;3.47;1.10;;;9.20;95.30;;;;;;4996511;28;20261;-88
2021/05/25 04:39:27;;;;;;;3.45;1.60;;;9.20;94.80;;;;;;5027765;28;20241;-87
2021/05/25 04:41:53;;;;;;;3.50;1.13;;;9.20;95.20;;;;;;5023491;28;20256;-87
2021/05/25 04:44:20;;;;;;;2.65;0.95;;;9.10;95.90;;;;;;5018030;28;20204;-87
2021/05/25 04:46:47;;;;;;;2.42;1.10;;;9.10;95.90;;;;;;5010755;28;20239;-87
2021/05/25 04:49:14;;;;;;;3.05;1.20;;;9.20;96.00;;;;;;5021192;28;20214;-87
2021/05/25 04:51:40;;;;;;;5.57;1.65;;;9.30;95.10;;;;;;5023983;28;20272;-88
2021/05/25 04:54:06;;;;;;;3.95;1.42;;;9.30;94.80;;;;;;5027971;28;20227;-88
2021/05/25 04:56:34;;;;;;;2.22;1.50;;;9.30;94.70;;;;;;5026921;28;20202;-88
2021/05/25 04:59:01;;;;;;;2.45;1.33;;;9.30;95.00;;;;;;5015154;28;20226;-90
2021/05/25 05:01:27;;;;;;;2.58;1.30;;;9.40;94.10;;;;;;5018350;28;20225;-88
2021/05/25 05:03:55;;;;;;;1.95;1.08;;;9.40;93.30;;;;;;5026710;28;20209;-87
2021/05/25 05:06:21;;;;;;;3.72;1.52;;;9.40;92.80;;;;;;5027539;28;20210;-90
2021/05/25 05:08:48;;;;;;;2.92;1.20;;;9.50;92.80;;;;;;5026838;28;20230;-87
2021/05/25 05:11:14;;;;;;;6.63;1.40;;;9.60;92.80;;;;;;5027610;28;20207;-87
2021/05/25 05:13:41;;;;;;;1.58;1.30;;;9.60;92.80;;;;;;5029255;28;20227;-88
2021/05/25 05:16:08;;;;;;;3.03;1.40;;;9.60;92.20;;;;;;5031761;28;20205;-88
2021/05/25 05:18:34;;;;;;;3.33;1.20;;;9.70;91.50;;;;;;5037267;28;20242;-89
2021/05/25 05:21:01;;;;;;;2.95;1.10;;;9.70;91.40;;;;;;5039215;28;20199;-88
2021/05/25 05:23:28;;;;;;;3.83;1.25;;;9.70;90.60;;;;;;5045018;28;20235;-87
2021/05/25 05:25:54;;;;;;;3.10;1.25;;;9.80;90.30;;;;;;5031832;28;20279;-86
2021/05/25 05:28:21;;;;;;;5.25;1.60;;;9.90;90.70;;;;;;5031525;28;20234;-87
2021/05/25 05:30:47;;;;;;;2.63;1.05;;;10.10;87.60;;;;;;5041793;28;20209;-87
2021/05/25 05:33:32;;;;;;;3.60;1.30;;;10.10;86.00;;;;;;5036381;28;20241;-87
2021/05/25 05:35:58;;;;;;;3.60;1.17;;;10.10;85.00;;;;;;5025422;28;20203;-87
2021/05/25 05:38:26;;;;;;;3.30;1.20;;;10.20;83.80;;;;;;5034594;28;20237;-87
2021/05/25 05:40:54;;;;;;;5.75;1.60;;;10.10;85.10;;;;;;5024984;28;20204;-87
2021/05/25 05:43:20;;;;;;;3.35;1.20;;;10.10;80.40;;;;;;5026624;28;20242;-87
2021/05/25 05:45:47;;;;;;;5.05;1.38;;;10.10;81.00;;;;;;5033595;28;20270;-88
2021/05/25 05:48:13;;;;;;;4.68;1.33;;;10.00;78.90;;;;;;5019525;28;20296;-87
2021/05/25 05:51:02;;;;;;;2.55;1.10;;;10.10;79.10;;;;;;5013295;28;20322;-87
2021/05/25 05:53:30;;;;;;;6.70;1.45;;;10.10;79.30;;;;;;5016592;28;20223;-87
2021/05/25 05:55:56;;;;;;;8.60;1.60;;;10.10;78.70;;;;;;5032702;28;20209;-87
2021/05/25 06:01:48;;;;;;;5.22;1.35;;;10.20;77.30;;;;;;5032848;28;20198;-87
2021/05/25 06:04:14;;;;;;;4.75;1.17;;;10.30;78.90;;;;;;5032366;28;20207;-87
2021/05/25 06:06:50;;;;;;;3.53;1.38;;;10.50;76.70;;;;;;5014535;28;20631;-87
2021/05/25 06:09:19;;;;;;;4.22;1.23;;;10.60;69.80;;;;;;5032803;28;20195;-87
2021/05/25 06:11:52;;;;;;;5.22;2.17;;;10.70;69.10;;;;;;5033599;28;20194;-88
2021/05/25 06:17:36;;;;;;;3.60;1.25;;;10.90;66.20;;;;;;5034317;28;20575;-87
2021/05/25 06:20:03;;;;;;;2.50;1.35;;;10.90;63.40;;;;;;5032736;28;20204;-87
2021/05/25 06:22:29;;;;;;;4.25;1.40;;;10.80;65.00;;;;;;5032049;28;20231;-87
2021/05/25 06:25:01;;;;;;;4.63;1.35;;;10.80;65.60;;;;;;5030706;28;20221;-87
2021/05/25 06:27:28;;;;;;;3.17;1.42;;;10.60;68.00;;;;;;5031485;28;20230;-87
2021/05/25 06:29:55;;;;;;;7.30;1.35;;;10.60;65.50;;;;;;5016150;28;20203;-87
2021/05/25 06:32:27;;;;;;;5.30;1.40;;;10.60;68.10;;;;;;5051401;28;20244;-87
2021/05/25 06:34:54;;;;;;;4.90;1.40;;;10.70;68.00;;;;;;5051878;28;20268;-87
2021/05/25 06:37:21;;;;;;;4.25;1.60;;;10.60;66.50;;;;;;5050765;28;20233;-87
2021/05/25 06:39:47;;;;;;;4.80;1.70;;;10.60;66.20;;;;;;5051618;28;20207;-87
2021/05/25 06:42:15;;;;;;;5.25;1.98;;;10.70;67.60;;;;;;5051646;28;20237;-87
2021/05/25 06:44:41;;;;;;;5.85;1.60;;;10.60;66.20;;;;;;5040282;28;20267;-87
2021/05/25 06:47:08;;;;;;;4.75;1.45;;;10.70;64.50;;;;;;5014985;28;20232;-87
2021/05/25 07:03:26;;;;;;;5.90;1.33;;;11.80;58.90;;;;;;5567071;23;20248;-87
2021/05/25 07:06:11;;;;;;;7.82;1.40;;;11.90;58.60;;;;;;5057401;28;20209;-87
2021/05/25 07:08:38;;;;;;;7.82;1.60;;;12.10;55.40;;;;;;5041558;28;20301;-88
2021/05/25 07:11:04;;;;;;;5.78;1.50;;;12.10;54.60;;;;;;5070004;28;20227;-88
2021/05/25 07:13:31;;;;;;;5.18;1.48;;;12.00;57.50;;;;;;5065946;28;20226;-87
2021/05/25 07:15:57;;;;;;;2.88;1.25;;;12.10;57.60;;;;;;5083170;28;20216;-88
2021/05/25 07:18:24;;;;;;;5.47;1.20;;;12.30;57.60;;;;;;5065171;28;20309;-87
2021/05/25 07:20:51;;;;;;;3.30;1.10;;;12.70;49.20;;;;;;5062298;28;20212;-88
2021/05/25 07:23:17;;;;;;;4.97;1.42;;;12.90;49.40;;;;;;5070029;28;20309;-87
2021/05/25 07:25:44;;;;;;;2.72;1.17;;;12.90;46.60;;;;;;5069573;28;20190;-87
2021/05/25 07:28:10;;;;;;;2.22;1.08;;;12.60;49.10;;;;;;5053551;28;20388;-87
2021/05/25 07:30:37;;;;;;;8.20;1.40;;;12.30;48.40;;;;;;5050418;28;20293;-88
2021/05/25 07:33:04;;;;;;;4.78;1.10;;;12.10;48.00;;;;;;5050727;28;20257;-87
2021/05/25 07:35:32;;;;;;;2.03;1.02;;;11.90;48.50;;;;;;5051516;28;20657;-87
2021/05/25 07:37:59;;;;;;;4.68;1.10;;;11.90;48.50;;;;;;5050625;28;20253;-87
2021/05/25 07:40:25;;;;;;;3.63;1.30;;;12.20;48.80;;;;;;5086433;28;20201;-87
2021/05/25 07:42:52;;;;;;;2.25;1.00;;;12.50;47.10;;;;;;5070137;28;20260;-87
2021/05/25 07:45:18;;;;;;;5.60;1.40;;;12.70;49.20;;;;;;5069350;28;20213;-87
2021/05/25 07:47:45;;;;;;;2.78;1.20;;;12.70;45.10;;;;;;5077858;28;20272;-88
2021/05/25 07:50:13;;;;;;;3.97;1.27;;;12.80;45.30;;;;;;5075448;28;20228;-87
2021/05/25 07:52:41;;;;;;;3.50;1.30;;;12.80;45.10;;;;;;5068869;28;20229;-88
2021/05/25 07:55:09;;;;;;;2.72;1.10;;;12.70;46.70;;;;;;5049895;28;20237;-88
2021/05/25 07:57:35;;;;;;;3.05;1.40;;;12.30;45.10;;;;;;5048274;28;20225;-87
2021/05/25 08:00:03;;;;;;;3.47;1.20;;;12.10;45.90;;;;;;5050088;28;20205;-87
2021/05/25 08:02:29;;;;;;;3.28;1.10;;;12.20;46.80;;;;;;5030166;28;20258;-87
2021/05/25 08:04:56;;;;;;;6.85;1.50;;;12.00;46.10;;;;;;5042189;28;20296;-88
2021/05/25 08:07:22;;;;;;;3.35;1.33;;;12.30;48.90;;;;;;5055498;28;20281;-88
2021/05/25 08:09:50;;;;;;;2.78;1.10;;;12.50;46.10;;;;;;5049325;28;20344;-87
2021/05/25 08:15:30;;;;;;;4.25;1.05;;;13.70;41.10;;;;;;5044773;28;20217;-88
2021/05/25 08:18:05;;;;;;;5.50;1.70;;;14.20;40.60;;;;;;5063548;28;20252;-89
2021/05/25 08:20:32;;;;;;;5.55;1.50;;;14.30;40.30;;;;;;5045508;28;20204;-88
2021/05/25 08:23:00;;;;;;;2.38;1.35;;;14.60;40.60;;;;;;5034284;28;20225;-89
2021/05/25 08:25:30;;;;;;;2.25;1.25;;;15.40;37.70;;;;;;5039584;28;20211;-89
2021/05/25 08:27:58;;;;;;;4.32;1.45;;;16.70;34.70;;;;;;5042531;28;20310;-88
2021/05/25 08:30:25;;;;;;;7.40;1.52;;;17.10;32.90;;;;;;5043222;28;20199;-90
2021/05/25 08:32:53;;;;;;;5.82;1.77;;;16.40;34.40;;;;;;5043693;28;20222;-89
2021/05/25 08:35:24;;;;;;;2.83;1.13;;;15.80;34.20;;;;;;5036530;28;20208;-88
2021/05/25 08:37:56;;;;;;;4.88;1.35;;;15.00;36.90;;;;;;5031047;28;20234;-88
2021/05/25 08:40:24;;;;;;;5.57;1.27;;;14.30;38.60;;;;;;5035928;28;20201;-88
2021/05/25 08:42:52;;;;;;;5.10;1.42;;;14.00;39.10;;;;;;5043083;28;20222;-89
2021/05/25 08:45:20;;;;;;;2.00;1.30;;;13.80;40.00;;;;;;5042894;28;20202;-89
2021/05/25 08:47:47;;;;;;;2.25;0.98;;;13.80;41.40;;;;;;5042688;28;20275;-88
2021/05/25 08:50:24;;;;;;;3.10;1.52;;;14.10;38.40;;;;;;5046424;28;20202;-89
2021/05/25 08:52:59;;;;;;;3.78;1.05;;;14.50;39.60;;;;;;5038298;28;20237;-88
2021/05/25 08:55:27;;;;;;;3.40;1.50;;;15.10;38.10;;;;;;5041422;28;20624;-89
2021/05/25 08:57:58;;;;;;;2.95;1.48;;;15.80;35.10;;;;;;5040941;28;20311;-88
2021/05/25 09:00:26;;;;;;;2.60;1.40;;;15.80;34.70;;;;;;5039921;28;20268;-89
2021/05/25 09:02:53;;;;;;;4.32;1.50;;;15.70;36.40;;;;;;5040281;28;20222;-88
2021/05/25 09:05:21;;;;;;;3.20;1.50;;;15.80;35.40;;;;;;5042774;28;20217;-89
2021/05/25 09:07:52;;;;;;;3.42;1.35;;;15.50;34.70;;;;;;5046985;28;20304;-90
2021/05/25 09:10:21;;;;;;;2.33;1.20;;;15.60;36.10;;;;;;5047968;28;20206;-90
2021/05/25 09:12:51;;;;;;;5.43;1.20;;;16.20;33.10;;;;;;5046868;28;20736;-89
2021/05/25 09:15:33;;;;;;;4.15;1.52;;;16.10;28.80;;;;;;5039744;28;20248;-89
2021/05/25 09:18:04;;;;;;;7.15;1.40;;;15.20;30.50;;;;;;5042321;28;20234;-88
2021/05/25 09:20:42;;;;;;;4.28;1.02;;;14.40;31.20;;;;;;5053671;28;20246;-88
2021/05/25 09:23:13;;;;;;;3.47;1.00;;;13.80;33.40;;;;;;5067062;28;20726;-88
2021/05/25 09:25:58;;;;;;;6.03;1.33;;;14.60;34.50;;;;;;5045010;28;20285;-89
2021/05/25 09:28:31;;;;;;;3.10;1.27;;;17.00;29.60;;;;;;5044888;28;20218;-86
2021/05/25 09:30:58;;;;;;;3.67;1.25;;;19.70;24.90;;;;;;5041841;28;20237;-85
2021/05/25 09:33:25;;;;;;;4.45;1.70;;;21.50;22.80;;;;;;5039283;28;20700;-86
2021/05/25 09:36:10;;;;;;;3.60;1.23;;;23.10;20.30;;;;;;5041460;28;20209;-86
2021/05/25 09:38:38;;;;;;;5.72;1.45;;;23.30;17.80;;;;;;5037605;28;20305;-87
2021/05/25 09:41:05;;;;;;;2.88;1.42;;;23.20;19.10;;;;;;5042323;28;20281;-85
2021/05/25 09:43:33;;;;;;;3.20;1.40;;;23.80;16.80;;;;;;5041275;28;20320;-87
2021/05/25 09:46:07;;;;;;;4.10;1.60;;;23.40;15.40;;;;;;5038085;28;20198;-84
2021/05/25 09:48:52;;;;;;;2.35;1.42;;;22.60;17.10;;;;;;5045858;28;20229;-85
2021/05/25 09:51:20;;;;;;;2.40;1.38;;;22.50;18.40;;;;;;5040438;28;20557;-85
2021/05/25 09:53:48;;;;;;;3.40;1.40;;;21.80;18.00;;;;;;5039795;28;20332;-87
2021/05/25 09:56:22;;;;;;;4.22;1.65;;;21.40;20.70;;;;;;5039422;28;20262;-84
2021/05/25 09:58:48;;;;;;;5.18;1.55;;;20.30;21.30;;;;;;5044467;28;20222;-86
2021/05/25 10:01:16;;;;;;;4.90;1.30;;;18.80;22.30;;;;;;5048593;28;20209;-88
2021/05/25 10:03:44;;;;;;;4.22;1.27;;;18.00;23.80;;;;;;5047115;28;20256;-89
2021/05/25 10:06:11;;;;;;;3.65;1.40;;;17.90;24.60;;;;;;5046688;28;20554;-88
2021/05/25 10:08:37;;;;;;;3.72;1.35;;;17.10;27.70;;;;;;5047034;28;20265;-88
2021/05/25 10:11:05;;;;;;;4.20;1.30;;;16.90;28.20;;;;;;5049402;28;20256;-87
2021/05/25 10:13:32;;;;;;;3.13;1.10;;;16.60;29.20;;;;;;5049847;28;20404;-87
2021/05/25 10:15:59;;;;;;;4.00;1.15;;;16.30;29.00;;;;;;5041137;28;20202;-90
2021/05/25 10:21:05;;;;;;;2.75;1.20;;;16.40;29.00;;;;;;5038497;28;20660;-89
2021/05/25 10:23:37;;;;;;;2.17;1.27;;;17.50;30.00;;;;;;5043704;28;20222;-88
2021/05/25 10:26:34;;;;;;;2.90;1.30;;;19.30;28.80;;;;;;5037686;28;20233;-88
2021/05/25 10:29:04;;;;;;;4.30;1.60;;;20.40;22.50;;;;;;5029180;28;20227;-87
2021/05/25 10:31:33;;;;;;;6.20;2.03;;;20.70;22.40;;;;;;5042365;28;20207;-88
2021/05/25 10:34:18;;;;;;;4.90;1.67;;;19.70;21.40;;;;;;5045316;28;20226;-87
2021/05/25 10:36:47;;;;;;;6.45;1.42;;;19.70;22.30;;;;;;5043037;28;20211;-87
2021/05/25 10:39:34;;;;;;;6.70;1.40;;;20.10;22.30;;;;;;5043694;28;20253;-88
2021/05/25 10:42:24;;;;;;;3.42;1.20;;;20.40;21.80;;;;;;5033217;28;20230;-88
2021/05/25 10:44:52;;;;;;;3.25;1.50;;;20.50;21.90;;;;;;5038913;28;20561;-85
2021/05/25 10:47:21;;;;;;;3.42;1.25;;;20.90;21.00;;;;;;5036630;28;20218;-84
2021/05/25 10:49:56;;;;;;;7.88;1.50;;;21.70;21.00;;;;;;5036631;28;20206;-86
2021/05/25 10:52:23;;;;;;;2.88;1.25;;;22.00;20.30;;;;;;5039327;28;20328;-83
2021/05/25 10:54:58;;;;;;;10.80;1.67;;;22.00;21.90;;;;;;5041984;28;20305;-83
2021/05/25 10:57:51;;;;;;;6.57;1.70;;;21.60;22.10;;;;;;5043363;28;20225;-86
2021/05/25 11:00:30;;;;;;;3.92;1.60;;;21.10;21.20;;;;;;5036238;28;20202;-88
2021/05/25 11:02:59;;;;;;;6.07;1.55;;;20.10;23.10;;;;;;5043802;28;20355;-87
2021/05/25 11:05:55;;;;;;;3.33;1.42;;;19.40;25.00;;;;;;5046478;28;20209;-88
2021/05/25 11:08:37;;;;;;;3.25;1.30;;;18.30;25.90;;;;;;5042720;28;20222;-88
2021/05/25 11:11:30;;;;;;;5.57;1.60;;;17.00;28.20;;;;;;5028987;28;20225;-91
2021/05/25 11:13:57;;;;;;;4.50;1.33;;;16.40;29.00;;;;;;5033432;28;20219;-89
2021/05/25 11:16:32;;;;;;;12.00;1.73;;;16.60;29.20;;;;;;5040331;28;20616;-90
2021/05/25 11:19:21;;;;;;;2.50;1.15;;;16.70;29.30;;;;;;5048803;28;20208;-90
2021/05/25 11:25:00;;;;;;;2.30;1.20;;;16.80;28.00;;;;;;5047666;28;20182;-90
2021/05/25 11:27:33;;;;;;;1.85;1.10;;;16.90;29.50;;;;;;5048711;28;20206;-90
2021/05/25 11:30:02;;;;;;;4.82;1.20;;;17.00;27.10;;;;;;5041491;28;20256;-91
2021/05/25 11:32:29;;;;;;;6.63;1.70;;;17.10;29.60;;;;;;5041419;28;20226;-90
2021/05/25 11:34:58;;;;;;;5.82;1.27;;;16.80;25.00;;;;;;5046298;28;20680;-90
2021/05/25 11:37:27;;;;;;;9.73;1.20;;;16.60;26.30;;;;;;5046036;28;20226;-90
2021/05/25 11:39:54;;;;;;;4.93;1.50;;;16.50;29.10;;;;;;5048019;28;20230;-90
2021/05/25 11:42:26;;;;;;;4.95;1.65;;;16.60;27.70;;;;;;5050669;28;20292;-88
2021/05/25 11:44:55;;;;;;;1.70;0.88;;;16.10;28.70;;;;;;5051660;28;20199;-89
2021/05/25 11:47:41;;;;;;;4.18;1.40;;;15.50;28.70;;;;;;5056538;28;20205;-89
2021/05/25 11:50:10;;;;;;;3.17;1.40;;;15.40;30.60;;;;;;5051745;28;20232;-88
2021/05/25 11:52:39;;;;;;;4.18;1.40;;;15.30;30.00;;;;;;5055920;28;20237;-88
2021/05/25 12:00:35;;;;;;;3.22;1.40;;;15.80;29.60;;;;;;5491612;22;20299;-88
2021/05/25 12:03:08;;;;;;;2.40;0.93;;;15.70;31.10;;;;;;5073203;28;20265;-89
2021/05/25 12:05:44;;;;;;;1.40;1.08;;;15.50;28.30;;;;;;5068563;28;20196;-88
2021/05/25 12:08:11;;;;;;;6.30;1.70;;;15.30;28.10;;;;;;5063297;28;20213;-88
2021/05/25 12:10:39;;;;;;;4.50;1.20;;;15.40;28.20;;;;;;5048422;28;20262;-88
2021/05/25 12:13:07;;;;;;;3.60;1.05;;;15.70;28.40;;;;;;5047344;28;20298;-89
2021/05/25 12:15:39;;;;;;;2.53;1.30;;;16.30;29.00;;;;;;5056160;28;20201;-91
2021/05/25 12:18:10;;;;;;;3.67;1.48;;;16.80;29.40;;;;;;5067977;28;20260;-89
2021/05/25 12:20:40;;;;;;;5.28;1.30;;;17.10;29.60;;;;;;5057009;28;20286;-88
2021/05/25 12:23:08;;;;;;;3.30;1.42;;;17.30;29.80;;;;;;5052731;28;20221;-89
2021/05/25 12:25:36;;;;;;;3.45;1.30;;;17.50;27.50;;;;;;5058712;28;20194;-89
2021/05/25 12:28:08;;;;;;;3.42;1.35;;;17.00;26.40;;;;;;5067281;28;20233;-88
2021/05/25 12:30:37;;;;;;;4.32;1.60;;;16.60;27.50;;;;;;5062908;28;20220;-89
2021/05/25 12:33:04;;;;;;;12.85;1.40;;;16.00;28.70;;;;;;5095064;28;20225;-88
2021/05/25 12:35:43;;;;;;;7.10;1.42;;;16.00;28.70;;;;;;5070309;28;20225;-88
2021/05/25 12:41:49;;;;;;;6.22;1.83;;;16.30;29.00;;;;;;5071147;28;20182;-88
2021/05/25 12:44:21;;;;;;;3.45;1.17;;;16.40;29.00;;;;;;5055386;28;20216;-88
2021/05/25 12:46:54;;;;;;;2.95;1.33;;;16.60;28.10;;;;;;5055125;28;20206;-88
2021/05/25 12:49:31;;;;;;;1.75;1.02;;;16.60;26.60;;;;;;5057031;28;20269;-88
2021/05/25 12:57:57;;;;;;;5.22;1.63;;;15.80;28.50;;;;;;5592848;22;20238;-88
2021/05/25 13:00:29;;;;;;;2.28;1.00;;;15.60;26.90;;;;;;5068952;28;20229;-89
2021/05/25 13:03:24;;;;;;;2.50;1.00;;;15.60;24.90;;;;;;5074950;28;20637;-88
2021/05/25 13:06:36;;;;;;;3.65;1.10;;;16.00;28.70;;;;;;5053990;28;20269;-89
2021/05/25 13:09:22;;;;;;;8.13;1.30;;;16.20;24.50;;;;;;5070975;28;20213;-88
2021/05/25 13:12:02;;;;;;;3.35;1.48;;;16.20;23.80;;;;;;5070473;28;20197;-88
2021/05/25 13:14:31;;;;;;;3.50;1.10;;;16.00;25.80;;;;;;5069784;28;20289;-89
2021/05/25 13:17:00;;;;;;;6.75;1.20;;;16.00;27.10;;;;;;5071590;28;20206;-88
2021/05/25 13:19:37;;;;;;;5.25;1.40;;;16.20;26.50;;;;;;5071286;28;20194;-90
2021/05/25 13:22:07;;;;;;;2.55;1.15;;;16.50;29.10;;;;;;5040083;28;20247;-88
2021/05/25 13:24:35;;;;;;;4.85;1.27;;;16.50;27.20;;;;;;5050478;28;20232;-88
2021/05/25 13:27:01;;;;;;;3.08;1.35;;;16.30;26.60;;;;;;5052435;28;20283;-88
2021/05/25 13:29:34;;;;;;;3.30;1.30;;;16.20;28.20;;;;;;5049995;28;20228;-88
2021/05/25 13:32:01;;;;;;;7.57;1.23;;;16.10;27.50;;;;;;5049791;28;20252;-88
2021/05/25 13:34:28;;;;;;;2.47;1.27;;;16.20;28.90;;;;;;5053625;28;20194;-88
2021/05/25 13:36:54;;;;;;;6.03;1.00;;;16.20;26.70;;;;;;5053824;28;20230;-88
2021/05/25 13:39:53;;;;;;;4.03;1.17;;;16.00;26.70;;;;;;5052687;28;20198;-88
2021/05/25 13:42:20;;;;;;;5.72;1.35;;;15.80;28.50;;;;;;5051369;28;20226;-88
2021/05/25 13:44:48;;;;;;;5.53;1.20;;;15.30;28.10;;;;;;5053374;28;20265;-88
2021/05/25 13:47:15;;;;;;;4.07;1.25;;;15.20;28.10;;;;;;5058685;28;20198;-88
2021/05/25 13:49:46;;;;;;;5.60;1.30;;;15.00;29.00;;;;;;5054758;28;20202;-88
2021/05/25 13:52:12;;;;;;;3.83;1.33;;;14.90;29.00;;;;;;5058780;28;20209;-89
2021/05/25 13:57:17;;;;;;;3.75;1.30;;;15.40;30.70;;;;;;5499837;22;20225;-88